Time;durP1;ratioP1;P1;durP2;ratioP2;P2;SDS_P1;SDS_P2;PMS_P1;PMS_P2;Temp;Humidity;BMP_temperature;BMP_pressure;BME280_temperature;BME280_humidity;BME280_pressure;Samples;Min_cycle;Max_cycle;Signal;HPM_P1;HPM_P2
2022/11/11 00:01:58;;;;;;;91.20;43.10;;;;;;;5.39;100.00;99824.95;102991;1296;22466;-70
2022/11/11 00:04:43;;;;;;;79.90;40.50;;;;;;;5.37;100.00;99827.23;103031;1311;24267;-71
2022/11/11 00:07:29;;;;;;;82.70;41.50;;;;;;;5.37;100.00;99831.05;102959;1312;137474;-72
2022/11/11 00:10:15;;;;;;;87.70;44.20;;;;;;;5.37;100.00;99834.66;102993;1312;22479;-70
2022/11/11 00:13:02;;;;;;;88.10;44.50;;;;;;;5.37;100.00;99837.96;99666;1310;2510774;-71
2022/11/11 00:15:47;;;;;;;87.70;43.70;;;;;;;5.36;100.00;99838.58;103302;1305;24349;-70
2022/11/11 00:27:46;;;;;;;79.40;43.90;;;;;;;5.30;100.00;99847.28;103001;1310;25411;-71
2022/11/11 00:30:32;;;;;;;80.10;41.30;;;;;;;5.28;100.00;99851.11;102864;1297;137856;-71
2022/11/11 00:33:21;;;;;;;77.70;41.90;;;;;;;5.27;100.00;99857.44;102900;1310;22464;-73
2022/11/11 00:36:07;;;;;;;80.50;40.10;;;;;;;5.24;100.00;99864.40;102893;1304;137672;-71
2022/11/11 00:38:57;;;;;;;84.20;41.70;;;;;;;5.21;100.00;99865.54;102961;1306;22519;-71
2022/11/11 00:41:42;;;;;;;83.90;43.60;;;;;;;5.19;100.00;99865.02;102853;1312;137821;-72
2022/11/11 00:44:28;;;;;;;75.00;38.60;;;;;;;5.15;100.00;99861.84;102936;1310;22461;-71
2022/11/11 00:53:31;;;;;;;80.60;39.70;;;;;;;5.09;100.00;99862.16;102813;1305;138831;-72
2022/11/11 00:56:18;;;;;;;77.00;39.90;;;;;;;5.05;100.00;99858.60;102943;1310;23671;-72
2022/11/11 00:59:05;;;;;;;80.20;42.80;;;;;;;5.02;100.00;99855.56;102815;1310;24263;-72
2022/11/11 01:01:51;;;;;;;79.90;40.00;;;;;;;4.98;100.00;99849.55;102859;1296;25297;-71
2022/11/11 01:04:37;;;;;;;78.40;42.20;;;;;;;4.94;100.00;99844.77;102801;1304;22483;-71
2022/11/11 01:07:22;;;;;;;82.60;40.80;;;;;;;4.91;100.00;99844.41;102735;1312;137707;-71
2022/11/11 01:10:09;;;;;;;77.50;41.30;;;;;;;4.87;100.00;99844.76;102980;1313;22930;-72
2022/11/11 01:13:10;;;;;;;80.40;42.30;;;;;;;4.85;100.00;99845.54;102812;1311;137761;-74
2022/11/11 01:16:06;;;;;;;80.50;42.90;;;;;;;4.83;100.00;99843.11;102910;1298;22466;-73
2022/11/11 01:18:53;;;;;;;83.90;42.10;;;;;;;4.80;100.00;99839.66;102813;1313;137637;-71
2022/11/11 01:21:38;;;;;;;78.50;39.90;;;;;;;4.77;100.00;99840.04;102950;1310;23229;-70
2022/11/11 01:24:24;;;;;;;88.00;44.30;;;;;;;4.74;100.00;99839.84;102884;1311;137858;-72
2022/11/11 01:27:09;;;;;;;71.10;39.60;;;;;;;4.70;100.00;99839.21;102881;1310;24391;-73
2022/11/11 01:29:59;;;;;;;74.40;41.00;;;;;;;4.67;100.00;99831.83;102713;1310;137542;-72
2022/11/11 01:32:44;;;;;;;76.40;39.40;;;;;;;4.63;100.00;99832.38;102849;1305;24240;-74
2022/11/11 01:35:30;;;;;;;79.90;41.40;;;;;;;4.60;100.00;99828.80;102757;1304;137736;-72
2022/11/11 01:38:16;;;;;;;77.30;40.70;;;;;;;4.57;100.00;99828.76;102948;1295;25269;-71
2022/11/11 01:44:10;;;;;;;81.70;41.90;;;;;;;4.52;100.00;99830.80;102953;1307;25363;-71
2022/11/11 01:47:00;;;;;;;72.50;39.40;;;;;;;4.49;100.00;99835.01;102839;1310;22520;-72
2022/11/11 01:50:00;;;;;;;70.40;39.70;;;;;;;4.47;100.00;99839.64;102924;1308;25357;-72
2022/11/11 01:52:46;;;;;;;79.20;38.40;;;;;;;4.46;100.00;99843.50;102920;1303;25337;-75
2022/11/11 01:55:31;;;;;;;75.30;37.30;;;;;;;4.47;100.00;99843.58;102833;1304;137862;-72
2022/11/11 01:58:18;;;;;;;67.80;37.40;;;;;;;4.47;100.00;99845.95;102899;1310;22505;-71
2022/11/11 02:01:05;;;;;;;70.30;37.90;;;;;;;4.46;100.00;99851.38;102822;1304;137759;-73
2022/11/11 02:07:01;;;;;;;70.50;37.80;;;;;;;4.49;100.00;99846.58;102843;1305;137709;-71
2022/11/11 02:09:51;;;;;;;71.20;36.20;;;;;;;4.52;100.00;99842.46;102974;1288;22482;-71
2022/11/11 02:15:42;;;;;;;63.10;31.90;;;;;;;4.59;100.00;99843.63;102936;1313;24273;-72
2022/11/11 02:18:29;;;;;;;73.90;36.30;;;;;;;4.64;100.00;99844.59;102907;1295;137719;-71
2022/11/11 02:21:41;;;;;;;68.20;36.90;;;;;;;4.69;100.00;99849.23;102922;1310;24266;-75
2022/11/11 02:24:28;;;;;;;68.30;35.40;;;;;;;4.74;100.00;99850.27;102830;1310;137879;-72
2022/11/11 02:27:17;;;;;;;66.70;35.10;;;;;;;4.78;100.00;99852.14;102918;1309;24437;-72
2022/11/11 02:30:05;;;;;;;67.10;35.00;;;;;;;4.82;100.00;99854.35;102856;1313;137942;-71
2022/11/11 02:32:53;;;;;;;58.80;32.50;;;;;;;4.86;100.00;99854.28;102550;1313;24135;-71
2022/11/11 02:35:44;;;;;;;64.30;35.10;;;;;;;4.90;100.00;99854.04;102816;1305;137932;-73
2022/11/11 02:38:30;;;;;;;64.10;35.90;;;;;;;4.92;100.00;99866.71;102957;1310;22612;-73
2022/11/11 02:44:22;;;;;;;70.70;36.00;;;;;;;5.00;100.00;99862.67;102964;1297;22474;-74
2022/11/11 02:47:07;;;;;;;67.00;33.20;;;;;;;5.03;100.00;99863.30;102947;1310;23903;-72
2022/11/11 02:49:53;;;;;;;69.20;34.00;;;;;;;5.07;100.00;99869.35;102927;1313;22475;-72
2022/11/11 02:52:38;;;;;;;62.40;36.20;;;;;;;5.10;100.00;99870.27;102925;1313;22868;-71
2022/11/11 02:55:24;;;;;;;67.90;35.30;;;;;;;5.13;100.00;99872.98;102821;1292;138480;-71
2022/11/11 02:58:09;;;;;;;71.30;35.40;;;;;;;5.16;100.00;99875.19;103012;1310;23792;-72
2022/11/11 03:00:55;;;;;;;61.20;33.50;;;;;;;5.20;100.00;99876.64;102806;1310;138493;-73
2022/11/11 03:03:40;;;;;;;60.80;34.40;;;;;;;5.23;100.00;99875.17;102762;1305;22467;-73
2022/11/11 03:06:26;;;;;;;60.60;33.30;;;;;;;5.25;100.00;99871.68;102799;1312;137812;-73
2022/11/11 03:09:17;;;;;;;64.30;33.20;;;;;;;5.25;100.00;99872.94;102785;1289;22465;-72
2022/11/11 03:12:03;;;;;;;62.80;34.90;;;;;;;5.27;100.00;99868.23;102844;1312;137949;-71
2022/11/11 03:14:48;;;;;;;62.80;33.60;;;;;;;5.28;100.00;99870.80;102839;1312;24298;-73
2022/11/11 03:17:40;;;;;;;61.60;32.60;;;;;;;5.29;100.00;99872.29;102761;1310;138090;-71
2022/11/11 03:23:34;;;;;;;58.80;32.60;;;;;;;5.32;100.00;99868.14;102822;1305;137977;-72
2022/11/11 03:26:20;;;;;;;60.90;33.50;;;;;;;5.34;100.00;99868.70;102933;1298;23881;-73
2022/11/11 03:29:05;;;;;;;61.30;33.50;;;;;;;5.36;100.00;99868.84;102925;1313;25364;-74
2022/11/11 03:31:50;;;;;;;56.60;32.20;;;;;;;5.37;100.00;99867.77;102830;1302;137601;-73
2022/11/11 03:34:36;;;;;;;63.20;34.50;;;;;;;5.38;100.00;99877.52;102835;1312;25277;-76
2022/11/11 03:40:27;;;;;;;56.80;32.00;;;;;;;5.43;100.00;99869.98;102917;1300;22470;-72
2022/11/11 03:43:15;;;;;;;56.80;32.00;;;;;;;5.45;100.00;99867.91;102936;1313;137737;-72
2022/11/11 03:46:04;;;;;;;53.80;31.00;;;;;;;5.47;100.00;99860.64;102913;1312;22481;-73
2022/11/11 03:48:49;;;;;;;57.10;31.70;;;;;;;5.50;100.00;99861.39;102686;1291;138020;-72
2022/11/11 03:51:35;;;;;;;59.60;31.60;;;;;;;5.52;100.00;99864.05;102812;1307;23089;-71
2022/11/11 03:54:20;;;;;;;54.40;31.50;;;;;;;5.56;100.00;99867.77;102784;1312;137973;-75
2022/11/11 04:00:19;;;;;;;55.00;31.10;;;;;;;5.59;100.00;99878.61;102807;1312;138359;-73
2022/11/11 04:12:26;;;;;;;52.80;29.00;;;;;;;5.66;100.00;99875.45;102865;1313;137924;-74
2022/11/11 04:18:15;;;;;;;50.80;30.10;;;;;;;5.67;100.00;99860.14;102830;1297;137955;-73
2022/11/11 04:27:14;;;;;;;54.10;30.30;;;;;;;5.68;100.00;99858.25;102924;1288;22492;-72
2022/11/11 04:29:59;;;;;;;55.70;31.70;;;;;;;5.69;100.00;99865.58;102788;1310;138645;-71
2022/11/11 04:32:47;;;;;;;56.00;30.10;;;;;;;5.68;100.00;99864.88;102923;1313;23228;-73
2022/11/11 04:35:35;;;;;;;52.60;30.10;;;;;;;5.68;100.00;99871.80;102565;1300;138373;-72
2022/11/11 04:41:25;;;;;;;51.30;32.20;;;;;;;5.66;100.00;99864.21;102948;1313;22468;-74
2022/11/11 04:47:15;;;;;;;53.30;29.90;;;;;;;5.64;99.98;99864.25;102984;1310;24355;-74
2022/11/11 04:50:01;;;;;;;48.40;29.20;;;;;;;5.63;99.95;99865.17;102962;1313;22480;-71
2022/11/11 04:52:47;;;;;;;54.10;29.50;;;;;;;5.62;99.89;99876.80;102864;1312;22531;-71
2022/11/11 04:58:38;;;;;;;47.60;28.80;;;;;;;5.61;99.91;99874.08;102914;1313;22476;-72
2022/11/11 05:04:27;;;;;;;52.20;29.50;;;;;;;5.59;99.91;99873.73;102964;1310;23878;-72
2022/11/11 05:10:18;;;;;;;49.20;28.30;;;;;;;5.55;99.58;99899.09;102956;1295;22477;-71
2022/11/11 05:22:31;;;;;;;41.40;23.60;;;;;;;5.49;99.52;99904.98;102853;1310;22470;-75
2022/11/11 05:25:28;;;;;;;49.30;29.00;;;;;;;5.47;99.44;99910.00;102776;1310;138821;-74
2022/11/11 05:28:14;;;;;;;53.50;28.10;;;;;;;5.46;99.63;99912.44;102936;1310;22463;-71
2022/11/11 05:31:00;;;;;;;51.10;27.50;;;;;;;5.47;99.90;99912.34;102852;1310;137922;-72
2022/11/11 05:33:45;;;;;;;48.40;27.00;;;;;;;5.48;99.76;99916.90;102972;1304;24313;-74
2022/11/11 05:36:31;;;;;;;48.30;25.50;;;;;;;5.49;99.85;99916.95;102856;1305;138049;-71
2022/11/11 05:39:17;;;;;;;48.20;26.10;;;;;;;5.51;99.79;99914.95;102970;1307;23909;-74
2022/11/11 05:42:02;;;;;;;45.40;25.20;;;;;;;5.53;99.91;99912.20;102847;1295;137903;-72
2022/11/11 05:44:48;;;;;;;46.40;26.80;;;;;;;5.56;99.81;99912.27;102941;1308;22510;-71
2022/11/11 05:47:34;;;;;;;44.30;24.70;;;;;;;5.58;99.83;99913.30;102949;1305;25542;-72
2022/11/11 05:50:19;;;;;;;47.40;27.80;;;;;;;5.60;99.81;99922.41;102944;1291;24269;-71
2022/11/11 05:53:05;;;;;;;50.40;27.30;;;;;;;5.62;99.81;99926.69;102950;1295;24357;-72
2022/11/11 05:55:50;;;;;;;47.40;28.20;;;;;;;5.64;99.68;99934.04;102899;1313;137737;-72
2022/11/11 05:58:36;;;;;;;46.70;27.90;;;;;;;5.65;99.69;99934.29;102942;1303;22478;-73
2022/11/11 06:01:22;;;;;;;51.80;29.20;;;;;;;5.66;99.49;99938.12;102868;1313;137737;-71
2022/11/11 06:04:08;;;;;;;51.20;28.70;;;;;;;5.67;99.64;99941.20;102952;1308;22518;-72
2022/11/11 06:06:54;;;;;;;46.60;29.00;;;;;;;5.68;99.59;99945.23;102898;1312;137728;-71
2022/11/11 06:09:39;;;;;;;49.70;28.40;;;;;;;5.70;99.55;99945.40;102918;1311;22482;-72
2022/11/11 06:13:00;;;;;;;48.10;27.10;;;;;;;5.73;99.60;99940.96;102912;1302;137949;-72
2022/11/11 06:15:31;;;;;;;47.60;26.50;;;;;;;5.75;99.45;99944.84;103040;1312;25601;-72
2022/11/11 06:18:18;;;;;;;50.20;29.70;;;;;;;5.78;99.52;99938.77;102808;1313;137986;-72
2022/11/11 06:21:04;;;;;;;47.00;26.90;;;;;;;5.81;99.54;99941.96;103000;1291;22492;-71
2022/11/11 06:23:50;;;;;;;47.10;27.00;;;;;;;5.84;99.33;99936.08;102903;1311;138204;-71
2022/11/11 06:26:35;;;;;;;51.80;29.70;;;;;;;5.86;99.40;99938.70;102968;1312;22501;-72
2022/11/11 06:29:21;;;;;;;52.90;30.30;;;;;;;5.89;99.20;99937.59;102905;1311;25386;-71
2022/11/11 06:32:06;;;;;;;56.40;30.00;;;;;;;5.93;99.46;99946.89;102753;1312;138612;-73
2022/11/11 06:34:55;;;;;;;53.90;29.60;;;;;;;5.96;99.38;99948.59;103067;1294;25305;-71
2022/11/11 06:37:41;;;;;;;54.10;28.60;;;;;;;5.99;99.29;99950.75;102830;1300;137816;-70
2022/11/11 06:40:27;;;;;;;61.40;28.90;;;;;;;6.04;99.55;99945.14;103128;1311;22897;-71
2022/11/11 06:43:13;;;;;;;47.00;26.20;;;;;;;6.08;99.23;99937.14;102996;1299;137705;-71
2022/11/11 06:45:59;;;;;;;50.70;28.70;;;;;;;6.13;99.37;99935.73;103146;1304;22861;-71
2022/11/11 06:48:45;;;;;;;48.80;27.40;;;;;;;6.18;99.20;99937.21;102944;1312;137953;-72
2022/11/11 06:51:30;;;;;;;46.30;27.80;;;;;;;6.23;99.15;99943.29;103023;1288;22565;-71
2022/11/11 06:54:16;;;;;;;49.90;28.40;;;;;;;6.29;99.32;99947.52;102917;1302;138075;-71
2022/11/11 06:57:02;;;;;;;49.20;28.20;;;;;;;6.34;99.19;99951.56;103049;1313;23884;-72
2022/11/11 06:59:48;;;;;;;50.80;27.70;;;;;;;6.39;99.19;99949.52;102961;1305;138005;-71
2022/11/11 07:02:33;;;;;;;47.60;27.70;;;;;;;6.43;98.87;99950.64;102944;1302;25947;-71
2022/11/11 07:05:19;;;;;;;47.30;26.80;;;;;;;6.48;98.61;99954.80;103034;1295;25371;-71
2022/11/11 07:08:11;;;;;;;47.70;27.40;;;;;;;6.53;98.96;99955.39;102883;1310;137565;-71
2022/11/11 07:10:57;;;;;;;42.30;27.20;;;;;;;6.58;98.56;99954.27;102994;1310;25232;-71
2022/11/11 07:13:42;;;;;;;46.60;25.90;;;;;;;6.63;98.24;99953.02;102771;1310;137897;-71
2022/11/11 07:16:28;;;;;;;47.10;27.00;;;;;;;6.68;98.56;99952.06;103093;1312;25399;-71
2022/11/11 07:19:14;;;;;;;51.00;28.90;;;;;;;6.73;98.25;99952.05;102921;1311;137775;-73
2022/11/11 07:21:59;;;;;;;46.00;27.40;;;;;;;6.76;98.36;99944.75;102951;1312;22470;-71
2022/11/11 07:24:45;;;;;;;42.70;26.10;;;;;;;6.80;98.26;99934.60;102938;1301;137813;-72
2022/11/11 07:27:33;;;;;;;45.50;27.40;;;;;;;6.85;98.00;99932.17;103055;1310;23010;-71
2022/11/11 07:30:19;;;;;;;47.10;26.90;;;;;;;6.90;97.95;99932.13;102982;1309;138064;-70
2022/11/11 07:33:06;;;;;;;49.70;29.20;;;;;;;6.94;97.61;99927.64;103105;1297;25322;-71
2022/11/11 07:35:52;;;;;;;51.60;27.10;;;;;;;6.97;97.60;99925.69;103058;1299;137919;-72
2022/11/11 07:38:38;;;;;;;49.70;27.90;;;;;;;7.00;97.00;99926.73;104050;1295;22508;-74
2022/11/11 07:41:23;;;;;;;45.70;27.30;;;;;;;7.03;97.20;99927.04;103212;1312;22484;-71
2022/11/11 07:44:09;;;;;;;51.60;28.60;;;;;;;7.07;96.86;99926.59;103543;1302;137615;-71
2022/11/11 07:46:55;;;;;;;46.40;26.70;;;;;;;7.13;97.22;99927.68;103714;1310;23568;-72
2022/11/11 07:49:40;;;;;;;48.70;27.90;;;;;;;7.20;96.61;99923.66;103545;1310;137827;-71
2022/11/11 07:52:29;;;;;;;43.20;26.00;;;;;;;7.25;96.65;99917.09;102830;1303;25288;-73
2022/11/11 07:55:16;;;;;;;39.90;25.50;;;;;;;7.31;96.50;99909.80;103095;1307;137858;-72
2022/11/11 07:58:05;;;;;;;41.60;26.70;;;;;;;7.37;96.35;99906.84;102892;1300;22485;-72
2022/11/11 08:00:50;;;;;;;40.00;24.90;;;;;;;7.43;96.36;99899.73;102932;1295;138082;-73
2022/11/11 08:03:48;;;;;;;41.90;25.70;;;;;;;7.48;96.14;99902.85;103451;1302;22261;-73
2022/11/11 08:06:33;;;;;;;43.20;26.00;;;;;;;7.56;96.06;99905.86;104690;1301;138939;-73
2022/11/11 08:09:19;;;;;;;46.80;24.50;;;;;;;7.63;96.20;99902.69;103623;1313;25225;-73
2022/11/11 08:15:10;;;;;;;41.50;24.80;;;;;;;7.79;95.92;99900.83;103543;1301;22480;-72
2022/11/11 08:17:55;;;;;;;42.80;24.00;;;;;;;7.87;95.77;99898.63;104035;1313;138277;-74
2022/11/11 08:20:41;;;;;;;41.70;24.00;;;;;;;7.94;95.62;99904.17;104018;1295;22533;-73
2022/11/11 08:23:32;;;;;;;37.10;23.20;;;;;;;8.03;95.22;99905.13;103404;1311;30104;-73
2022/11/11 08:26:20;;;;;;;37.90;22.20;;;;;;;8.11;94.97;99909.73;103721;1311;26590;-73
2022/11/11 08:29:06;;;;;;;35.50;21.50;;;;;;;8.17;94.60;99907.87;104303;1288;25376;-73
2022/11/11 08:31:54;;;;;;;41.50;21.80;;;;;;;8.26;94.36;99910.55;104049;1311;138599;-73
2022/11/11 08:34:39;;;;;;;31.80;20.80;;;;;;;8.34;94.38;99911.17;103729;1293;22471;-72
2022/11/11 08:37:26;;;;;;;35.20;20.10;;;;;;;8.39;93.65;99916.44;103462;1304;138841;-73
2022/11/11 08:40:12;;;;;;;34.70;20.90;;;;;;;8.45;93.55;99918.86;103081;1313;25235;-72
2022/11/11 08:42:58;;;;;;;33.40;20.40;;;;;;;8.51;93.08;99916.98;103079;1293;137948;-72
2022/11/11 08:45:46;;;;;;;31.00;19.90;;;;;;;8.59;92.98;99917.84;103053;1311;22463;-74
2022/11/11 08:48:32;;;;;;;30.20;17.60;;;;;;;8.65;92.42;99915.52;103189;1303;138637;-75
2022/11/11 08:51:18;;;;;;;29.80;17.80;;;;;;;8.73;91.62;99922.33;103400;1305;22472;-74
2022/11/11 08:54:04;;;;;;;32.30;19.40;;;;;;;8.80;91.30;99930.47;103134;1285;138274;-73
2022/11/11 08:56:49;;;;;;;30.80;18.10;;;;;;;8.89;91.31;99925.31;103222;1312;22518;-72
2022/11/11 08:59:35;;;;;;;29.80;17.90;;;;;;;8.99;90.89;99921.03;102994;1289;22483;-71
2022/11/11 09:02:21;;;;;;;25.30;15.30;;;;;;;9.09;90.55;99925.28;103007;1313;25688;-73
2022/11/11 09:05:09;;;;;;;31.20;16.40;;;;;;;9.18;89.94;99921.11;102989;1311;22461;-72
2022/11/11 09:07:55;;;;;;;27.30;16.60;;;;;;;9.27;89.92;99921.39;103034;1295;138333;-73
2022/11/11 09:10:41;;;;;;;30.50;16.90;;;;;;;9.34;89.41;99919.00;103108;1310;26647;-74
2022/11/11 09:13:27;;;;;;;28.50;17.00;;;;;;;9.41;89.29;99910.29;102788;1310;138146;-75
2022/11/11 09:16:13;;;;;;;26.20;16.20;;;;;;;9.52;89.12;99902.13;102884;1295;22480;-75
2022/11/11 09:18:58;;;;;;;26.10;16.60;;;;;;;9.62;88.67;99899.92;102847;1312;137930;-73
2022/11/11 09:21:44;;;;;;;25.20;16.50;;;;;;;9.68;87.93;99904.88;103228;1311;25191;-72
2022/11/11 09:24:29;;;;;;;25.50;15.70;;;;;;;9.75;87.90;99902.98;102796;1312;138169;-73
2022/11/11 09:27:15;;;;;;;27.70;16.20;;;;;;;9.81;87.98;99907.91;103023;1310;24329;-72
2022/11/11 09:30:01;;;;;;;23.60;15.50;;;;;;;9.90;87.81;99919.99;102846;1310;138162;-73
2022/11/11 09:32:46;;;;;;;24.60;15.60;;;;;;;10.00;87.63;99917.38;103117;1288;22465;-74
2022/11/11 09:35:32;;;;;;;22.50;13.60;;;;;;;10.07;87.07;99907.48;102969;1291;22478;-74
2022/11/11 09:38:17;;;;;;;22.10;14.30;;;;;;;10.13;86.68;99901.08;103057;1290;138046;-74
2022/11/11 09:41:45;;;;;;;23.20;14.80;;;;;;;10.19;85.98;99908.27;103036;1303;23889;-74
2022/11/11 09:44:39;;;;;;;27.40;13.70;;;;;;;10.22;86.06;99910.77;103595;1312;22560;-72
2022/11/11 09:47:34;;;;;;;22.00;12.90;;;;;;;10.24;85.81;99906.37;102964;1310;22491;-72
2022/11/11 09:50:25;;;;;;;22.10;13.70;;;;;;;10.25;85.49;99911.10;102807;1309;138036;-73
2022/11/11 09:53:18;;;;;;;24.50;13.90;;;;;;;10.25;85.25;99910.14;103234;1291;25396;-73
2022/11/11 09:56:11;;;;;;;21.80;12.60;;;;;;;10.27;85.32;99918.99;103266;1302;138116;-73
2022/11/11 09:59:10;;;;;;;27.90;14.90;;;;;;;10.29;85.06;99918.05;102961;1313;25586;-74
2022/11/11 10:01:58;;;;;;;25.00;13.60;;;;;;;10.32;85.30;99921.04;102915;1313;138192;-72
2022/11/11 10:04:56;;;;;;;22.70;13.40;;;;;;;10.39;85.00;99918.66;103094;1311;22487;-73
2022/11/11 10:08:06;;;;;;;22.60;13.50;;;;;;;10.48;84.77;99920.21;102722;1312;138199;-72
2022/11/11 10:10:53;;;;;;;20.60;12.20;;;;;;;10.59;84.42;99912.92;102926;1312;24330;-73
2022/11/11 10:13:39;;;;;;;20.80;11.90;;;;;;;10.72;84.24;99911.00;102919;1312;138090;-73
2022/11/11 10:16:30;;;;;;;20.70;11.80;;;;;;;10.92;84.36;99899.25;102954;1311;62209;-73
2022/11/11 10:19:26;;;;;;;18.60;11.00;;;;;;;11.11;84.11;99895.98;102934;1310;138621;-73
2022/11/11 10:22:27;;;;;;;17.00;9.50;;;;;;;11.21;83.10;99898.77;103177;1310;22489;-72
2022/11/11 10:25:12;;;;;;;16.20;8.40;;;;;;;11.28;82.47;99897.08;102867;1310;137894;-74
2022/11/11 10:28:01;;;;;;;17.40;10.00;;;;;;;11.32;81.93;99894.63;103507;1301;22539;-72
2022/11/11 10:30:49;;;;;;;13.00;9.10;;;;;;;11.35;81.57;99887.94;103285;1309;138370;-73
2022/11/11 10:33:50;;;;;;;17.30;9.60;;;;;;;11.39;81.23;99898.77;103156;1297;22504;-73
2022/11/11 10:36:44;;;;;;;13.30;8.40;;;;;;;11.51;81.33;99891.71;102895;1301;138246;-73
2022/11/11 10:39:49;;;;;;;13.20;8.00;;;;;;;11.67;80.57;99893.86;103124;1313;25586;-72
2022/11/11 10:42:35;;;;;;;15.20;8.10;;;;;;;11.79;80.16;99892.64;103092;1297;138192;-72
2022/11/11 10:45:28;;;;;;;12.70;7.10;;;;;;;11.94;80.14;99892.88;103095;1294;22486;-73
2022/11/11 10:48:30;;;;;;;12.90;7.20;;;;;;;12.12;78.59;99891.05;102909;1311;138232;-73
2022/11/11 10:51:17;;;;;;;14.20;6.20;;;;;;;12.30;77.96;99889.46;102925;1310;25398;-73
2022/11/11 10:54:10;;;;;;;15.50;6.30;;;;;;;12.40;76.75;99880.41;103035;1312;45180;-76
2022/11/11 10:57:04;;;;;;;12.70;5.60;;;;;;;12.47;76.35;99875.73;103080;1310;22469;-73
2022/11/11 10:59:59;;;;;;;11.90;6.00;;;;;;;12.56;76.34;99874.61;103118;1309;22706;-73
2022/11/11 11:02:55;;;;;;;11.00;5.70;;;;;;;12.71;75.37;99871.69;103067;1313;22473;-73
2022/11/11 11:05:52;;;;;;;11.90;5.00;;;;;;;12.83;75.27;99865.10;103330;1313;22465;-73
2022/11/11 11:08:49;;;;;;;12.00;5.50;;;;;;;12.87;74.59;99859.43;103311;1309;137697;-74
2022/11/11 11:11:50;;;;;;;6.80;4.00;;;;;;;12.85;74.13;99852.20;103206;1309;22532;-72
2022/11/11 11:14:47;;;;;;;5.80;3.90;;;;;;;12.83;72.34;99850.86;103363;1287;137505;-73
2022/11/11 11:17:48;;;;;;;8.30;4.50;;;;;;;12.80;71.28;99856.52;103002;1312;1164088;-73
2022/11/11 11:20:34;;;;;;;11.60;5.40;;;;;;;12.78;72.49;99856.28;104712;1313;137944;-74
2022/11/11 11:23:42;;;;;;;11.20;4.90;;;;;;;12.78;72.35;99856.02;103152;1313;22465;-75
2022/11/11 11:26:43;;;;;;;11.20;5.30;;;;;;;12.82;71.12;99850.47;103625;1296;139517;-73
2022/11/11 11:29:41;;;;;;;11.60;5.00;;;;;;;12.82;71.30;99852.74;103650;1305;22506;-73
2022/11/11 11:32:29;;;;;;;9.20;5.50;;;;;;;12.82;70.29;99845.63;103114;1308;137908;-73
2022/11/11 11:35:35;;;;;;;11.00;6.00;;;;;;;12.84;70.66;99834.95;105353;1292;22254;-74
2022/11/11 11:38:40;;;;;;;8.40;5.80;;;;;;;12.92;70.97;99830.36;103190;1313;137952;-73
2022/11/11 11:41:43;;;;;;;11.90;5.70;;;;;;;12.96;70.40;99831.54;103920;1312;22331;-74
2022/11/11 11:44:34;;;;;;;11.20;6.80;;;;;;;12.98;70.37;99841.31;105087;1310;138107;-73
2022/11/11 11:47:38;;;;;;;11.60;6.40;;;;;;;12.99;69.65;99846.01;106385;1293;25383;-73
2022/11/11 11:50:50;;;;;;;10.20;6.50;;;;;;;13.00;69.41;99845.80;104531;1294;138339;-74
2022/11/11 11:54:02;;;;;;;12.50;6.60;;;;;;;13.01;69.44;99842.38;103792;1313;22468;-75
2022/11/11 11:56:53;;;;;;;14.00;7.40;;;;;;;12.98;68.71;99841.31;103546;1313;23919;-75
2022/11/11 11:59:49;;;;;;;12.10;7.50;;;;;;;12.95;69.41;99842.70;103341;1304;23051;-73
2022/11/11 12:03:04;;;;;;;14.70;7.50;;;;;;;12.90;69.56;99842.90;103472;1297;138088;-73
2022/11/11 12:06:31;;;;;;;13.60;7.70;;;;;;;12.83;69.58;99843.05;103111;1303;22583;-74
2022/11/11 12:09:22;;;;;;;10.70;7.00;;;;;;;12.77;69.93;99843.63;102929;1310;22484;-75
2022/11/11 12:12:07;;;;;;;;;;;;;;;12.72;70.12;99845.95;103349;1313;22494;-73
2022/11/11 12:15:19;;;;;;;14.90;8.30;;;;;;;12.68;70.79;99850.73;102989;1307;25231;-73
2022/11/11 12:18:23;;;;;;;13.60;7.60;;;;;;;12.65;71.46;99843.52;103107;1297;25589;-74
2022/11/11 12:21:21;;;;;;;14.50;8.20;;;;;;;12.61;71.15;99830.99;103050;1301;22458;-74
2022/11/11 12:24:42;;;;;;;17.10;8.80;;;;;;;12.56;71.50;99826.72;103063;1310;24208;-73
2022/11/11 12:28:17;;;;;;;14.70;7.30;;;;;;;12.50;71.70;99825.63;102490;1315;22560;-74
2022/11/11 12:31:12;;;;;;;15.00;8.40;;;;;;;12.42;71.41;99828.95;101412;1330;138305;-73
2022/11/11 12:34:08;;;;;;;13.60;8.00;;;;;;;12.35;72.11;99823.65;101532;1312;25339;-72
2022/11/11 12:37:01;;;;;;;15.60;7.90;;;;;;;12.30;72.24;99825.58;101335;1317;138322;-75
2022/11/11 12:40:17;;;;;;;14.10;8.30;;;;;;;12.26;72.77;99829.19;101635;1331;22610;-73
2022/11/11 12:43:40;;;;;;;18.40;8.00;;;;;;;12.22;73.19;99838.35;101426;1326;138091;-73
2022/11/11 12:46:51;;;;;;;13.10;7.00;;;;;;;12.17;73.05;99840.86;101582;1326;24266;-73
2022/11/11 12:49:51;;;;;;;13.90;7.40;;;;;;;12.13;73.09;99829.88;101588;1318;138949;-73
2022/11/11 12:52:52;;;;;;;20.50;8.90;;;;;;;12.10;73.65;99821.96;101366;1330;24282;-73
2022/11/11 12:55:42;;;;;;;12.90;8.10;;;;;;;12.07;73.98;99819.49;101258;1331;138334;-74
2022/11/11 12:58:44;;;;;;;13.40;7.60;;;;;;;12.03;74.07;99812.81;101618;1322;22902;-76
2022/11/11 13:01:42;;;;;;;11.10;6.40;;;;;;;11.99;74.38;99814.81;101533;1328;22688;-78
2022/11/11 13:05:07;;;;;;;14.50;6.50;;;;;;;11.95;73.50;99815.06;101490;1322;138332;-73
2022/11/11 13:08:20;;;;;;;10.60;6.00;;;;;;;11.89;73.21;99815.52;101765;1318;22475;-73
2022/11/11 13:11:18;;;;;;;11.90;6.40;;;;;;;11.85;73.00;99809.38;102498;1309;22364;-73
2022/11/11 13:14:41;;;;;;;12.80;6.60;;;;;;;11.82;72.92;99807.14;103199;1316;22247;-74
2022/11/11 13:17:27;;;;;;;12.30;5.70;;;;;;;11.79;73.34;99811.02;105074;1318;22564;-74
2022/11/11 13:20:39;;;;;;;9.90;5.20;;;;;;;11.77;72.97;99809.10;102258;1317;24341;-73
2022/11/11 13:23:25;;;;;;;8.40;3.90;;;;;;;11.76;72.17;99808.69;102283;1316;25385;-72
2022/11/11 13:26:47;;;;;;;8.80;4.30;;;;;;;11.74;72.52;99808.02;102406;1289;25319;-74
2022/11/11 13:29:52;;;;;;;11.20;4.20;;;;;;;11.74;72.41;99797.61;101611;1317;22512;-73
2022/11/11 13:32:47;;;;;;;7.30;4.30;;;;;;;11.72;72.31;99796.78;101553;1321;138387;-73
2022/11/11 13:35:44;;;;;;;12.40;5.50;;;;;;;11.72;72.66;99790.86;101711;1320;22873;-73
2022/11/11 13:38:44;;;;;;;13.40;5.40;;;;;;;11.70;72.91;99787.46;101415;1322;137955;-73
2022/11/11 13:41:37;;;;;;;12.70;5.90;;;;;;;11.68;72.63;99789.91;101687;1299;35005;-73
2022/11/11 13:44:46;;;;;;;15.20;6.30;;;;;;;11.65;73.00;99793.59;101818;1306;138015;-73
2022/11/11 13:47:36;;;;;;;9.40;4.90;;;;;;;11.63;72.93;99794.14;102052;1320;22490;-72
2022/11/11 13:50:28;;;;;;;14.60;6.00;;;;;;;11.59;72.73;99787.00;101998;1321;137916;-73
2022/11/11 13:53:30;;;;;;;11.30;5.40;;;;;;;11.55;73.02;99785.75;102096;1319;22481;-73
2022/11/11 13:56:38;;;;;;;13.50;5.40;;;;;;;11.53;73.03;99791.89;102051;1319;138336;-72
2022/11/11 13:59:28;;;;;;;14.80;4.80;;;;;;;11.49;73.34;99793.67;102099;1319;24412;-73
2022/11/11 14:02:25;;;;;;;13.30;6.10;;;;;;;11.46;73.68;99791.27;102112;1319;138776;-73
2022/11/11 14:05:15;;;;;;;11.20;6.60;;;;;;;11.44;74.19;99794.50;102636;1310;24273;-72
2022/11/11 14:08:02;;;;;;;13.30;5.90;;;;;;;11.41;74.05;99794.19;102840;1304;138112;-73
2022/11/11 14:10:51;;;;;;;13.80;6.50;;;;;;;11.36;74.13;99800.83;102950;1309;22536;-72
2022/11/11 14:13:38;;;;;;;11.60;5.90;;;;;;;11.31;74.31;99804.38;102865;1310;138184;-73
2022/11/11 14:16:36;;;;;;;11.00;6.50;;;;;;;11.27;74.52;99814.47;102879;1313;22210;-73
2022/11/11 14:19:21;;;;;;;13.60;5.50;;;;;;;11.22;74.76;99817.01;103019;1297;24057;-73
2022/11/11 14:22:29;;;;;;;12.50;6.20;;;;;;;11.17;74.88;99811.85;103090;1311;24389;-72
2022/11/11 14:25:26;;;;;;;11.10;7.10;;;;;;;11.12;75.10;99811.52;103064;1299;22479;-72